Virgie Cenac — WDC2765 — position and weather

sailwx.info

Track history (hours):
 
Tides and Currents Weather Stations Pressure Air Temp Water Temp Dewpoint Dewpoint Depression Visibility Wind Speed Wind Dir Waves Ship Positions

Virgie Cenac

Owner: Cenac Marine Transportation, Inc., Houma, LA. More information available from US FCC via Universal Licensing System and Coast Guard Vessel Documentation Center.

Last reported at 2014-Nov-01 02:33 UTC. Time now 2014-Nov-01 02:41 UTC.
Position N 29°42' W 091°13'.

Length 18 m; draft 3 m.

Type: Towing. MMSI: 366997430.

Date/timePositionNaut miles runAvg speedWind from/ knotsBaromVisibWave heightAir tempDewpointWater temp
2014-Nov-01 02:33N 29°42' W 091°13'0 0.0
2014-Nov-01 01:33N 29°42' W 091°13'0 0.2
2014-Nov-01 00:33N 29°42' W 091°13'0 0.2
2014-Oct-31 23:33N 29°42' W 091°13'0 0.0
2014-Oct-31 22:33N 29°42' W 091°13'5 4.9
2014-Oct-31 21:29N 29°47' W 091°11'8 0.9
2014-Oct-31 13:09N 29°54' W 091°13'0 0.0
2014-Oct-31 12:29N 29°54' W 091°13'  
2014-Oct-24 23:24N 29°51' W 091°12'6 7.4
2014-Oct-24 22:33N 29°45' W 091°11'4 3.7
2014-Oct-24 21:33N 29°41' W 091°12'0 0.0
2014-Oct-24 20:33N 29°41' W 091°12'0 0.0
2014-Oct-24 19:33N 29°41' W 091°12'0 0.0
2014-Oct-24 18:33N 29°41' W 091°12'0 0.0
2014-Oct-24 17:33N 29°41' W 091°12'0 0.1
2014-Oct-24 16:33N 29°41' W 091°12'0 0.0
2014-Oct-24 15:33N 29°41' W 091°12'0 0.0
2014-Oct-24 14:33N 29°41' W 091°12'0 0.0
2014-Oct-24 13:33N 29°41' W 091°12'0 0.0
2014-Oct-24 12:33N 29°41' W 091°12'0 0.0
2014-Oct-24 11:33N 29°41' W 091°12'0 0.0
2014-Oct-24 10:33N 29°41' W 091°12'0 0.0
2014-Oct-24 09:33N 29°41' W 091°12'0 0.0
2014-Oct-24 08:33N 29°41' W 091°12'0 0.0
2014-Oct-24 07:33N 29°41' W 091°12'0 0.0
2014-Oct-24 06:33N 29°41' W 091°12'0 0.0
2014-Oct-24 05:33N 29°41' W 091°12'0 0.0
2014-Oct-24 04:33N 29°41' W 091°12'0 0.0
2014-Oct-24 03:33N 29°41' W 091°12'0 0.0
2014-Oct-24 02:33N 29°41' W 091°12'0 0.0
2014-Oct-24 01:33N 29°41' W 091°12'4 3.7
2014-Oct-24 00:33N 29°45' W 091°11'  
Track history (hours):
 
Tides and Currents Weather Stations Pressure Air Temp Water Temp Dewpoint Dewpoint Depression Visibility Wind Speed Wind Dir Waves Ship Positions

Virgie Cenac

Owner: Cenac Marine Transportation, Inc., Houma, LA. More information available from US FCC via Universal Licensing System and Coast Guard Vessel Documentation Center.

Last reported at 2014-Nov-01 02:33 UTC. Time now 2014-Nov-01 02:41 UTC.
Position N 29°42' W 091°13'.

Length 18 m; draft 3 m.

Type: Towing. MMSI: 366997430.

Date/timePositionNaut miles runAvg speedWind from/ knotsBaromVisibWave heightAir tempDewpointWater temp
2014-Nov-01 02:33N 29°42' W 091°13'0 0.0
2014-Nov-01 01:33N 29°42' W 091°13'0 0.2
2014-Nov-01 00:33N 29°42' W 091°13'0 0.2
2014-Oct-31 23:33N 29°42' W 091°13'0 0.0
2014-Oct-31 22:33N 29°42' W 091°13'5 4.9
2014-Oct-31 21:29N 29°47' W 091°11'8 0.9
2014-Oct-31 13:09N 29°54' W 091°13'0 0.0
2014-Oct-31 12:29N 29°54' W 091°13'  
2014-Oct-24 23:24N 29°51' W 091°12'6 7.4
2014-Oct-24 22:33N 29°45' W 091°11'4 3.7
2014-Oct-24 21:33N 29°41' W 091°12'0 0.0
2014-Oct-24 20:33N 29°41' W 091°12'0 0.0
2014-Oct-24 19:33N 29°41' W 091°12'0 0.0
2014-Oct-24 18:33N 29°41' W 091°12'0 0.0
2014-Oct-24 17:33N 29°41' W 091°12'0 0.1
2014-Oct-24 16:33N 29°41' W 091°12'0 0.0
2014-Oct-24 15:33N 29°41' W 091°12'0 0.0
2014-Oct-24 14:33N 29°41' W 091°12'0 0.0
2014-Oct-24 13:33N 29°41' W 091°12'0 0.0
2014-Oct-24 12:33N 29°41' W 091°12'0 0.0
2014-Oct-24 11:33N 29°41' W 091°12'0 0.0
2014-Oct-24 10:33N 29°41' W 091°12'0 0.0
2014-Oct-24 09:33N 29°41' W 091°12'0 0.0
2014-Oct-24 08:33N 29°41' W 091°12'0 0.0
2014-Oct-24 07:33N 29°41' W 091°12'0 0.0
2014-Oct-24 06:33N 29°41' W 091°12'0 0.0
2014-Oct-24 05:33N 29°41' W 091°12'0 0.0
2014-Oct-24 04:33N 29°41' W 091°12'0 0.0
2014-Oct-24 03:33N 29°41' W 091°12'0 0.0
2014-Oct-24 02:33N 29°41' W 091°12'0 0.0
2014-Oct-24 01:33N 29°41' W 091°12'4 3.7
2014-Oct-24 00:33N 29°45' W 091°11'  

Dump ship's entire track history